Time;durP1;ratioP1;P1;durP2;ratioP2;P2;SDS_P1;SDS_P2;PMS_P1;PMS_P2;Temp;Humidity;BMP_temperature;BMP_pressure;BME280_temperature;BME280_humidity;BME280_pressure;Samples;Min_cycle;Max_cycle;Signal;HPM_P1;HPM_P2
2020/04/24 00:00:19;;;;;;;7.85;5.950001;;;;;;;7.14;64.12305;95060.91;;;;
2020/04/24 00:01:32;;;;;;;6.95;5.649999;;;;;;;7.11;64.24805;95058.67;;;;
2020/04/24 00:02:42;;;;;;;6.95;5.649999;;;;;;;7.11;64.24805;95058.67;;;;
2020/04/24 00:03:50;;;;;;;6.95;5.649999;;;;;;;7.11;64.24805;95058.67;;;;
2020/04/24 00:05:04;;;;;;;6.649999;5.7;;;;;;;7.09;64.31836;95060.33;;;;
2020/04/24 00:07:25;;;;;;;6.649999;5.7;;;;;;;7.09;64.31836;95060.33;;;;
2020/04/24 00:08:37;;;;;;;7;5.849999;;;;;;;7.06;64.42969;95058.61;;;;
2020/04/24 00:15:14;;;;;;;6.749999;6.050001;;;;;;;6.98;64.67383;95049.51;;;;
2020/04/24 00:17:53;;;;;;;6.749999;6.050001;;;;;;;6.98;64.67383;95049.51;;;;
2020/04/24 00:19:52;;;;;;;6.749999;6.050001;;;;;;;6.98;64.67383;95049.51;;;;
2020/04/24 00:21:17;;;;;;;6.749999;6.050001;;;;;;;6.98;64.67383;95049.51;;;;
2020/04/24 00:22:31;;;;;;;6.749999;6.050001;;;;;;;6.98;64.67383;95049.51;;;;
2020/04/24 00:23:38;;;;;;;6.900001;5.6;;;;;;;6.48;63.36523;95048.63;;;;
2020/04/24 00:25:00;;;;;;;6.900001;5.6;;;;;;;6.48;63.36523;95048.63;;;;
2020/04/24 00:26:11;;;;;;;6.400001;5.649999;;;;;;;6.44;63.84961;95046.9;;;;
2020/04/24 00:27:21;;;;;;;6.400001;5.649999;;;;;;;6.44;63.84961;95046.9;;;;
2020/04/24 00:28:42;;;;;;;8.15;6.15;;;;;;;6.45;64.2334;95045.46;;;;
2020/04/24 00:29:47;;;;;;;8.15;6.15;;;;;;;6.45;64.2334;95045.46;;;;
2020/04/24 00:30:48;;;;;;;8.7;5.900001;;;;;;;6.46;64.73438;95043.48;;;;
2020/04/24 00:31:48;;;;;;;8.7;5.900001;;;;;;;6.46;64.73438;95043.48;;;;
2020/04/24 00:32:48;;;;;;;8.7;5.900001;;;;;;;6.46;64.73438;95043.48;;;;
2020/04/24 00:34:21;;;;;;;7.65;6.2;;;;;;;6.48;65.07715;95044.6;;;;
2020/04/24 00:35:21;;;;;;;7.65;6.2;;;;;;;6.48;65.07715;95044.6;;;;
2020/04/24 00:36:22;;;;;;;6.699998;6;;;;;;;6.48;65.38574;95045.01;;;;
2020/04/24 00:37:22;;;;;;;6.699998;6;;;;;;;6.48;65.38574;95045.01;;;;
2020/04/24 00:38:23;;;;;;;9.75;6;;;;;;;6.48;65.6084;95043.27;;;;
2020/04/24 00:39:23;;;;;;;9.75;6;;;;;;;6.48;65.6084;95043.27;;;;
2020/04/24 00:40:24;;;;;;;9.75;6;;;;;;;6.48;65.6084;95043.27;;;;
2020/04/24 00:41:24;;;;;;;8.8;5.749999;;;;;;;6.47;65.81836;95037.19;;;;
2020/04/24 00:42:25;;;;;;;8.8;5.749999;;;;;;;6.47;65.81836;95037.19;;;;
2020/04/24 00:43:25;;;;;;;8.8;5.749999;;;;;;;6.47;65.81836;95037.19;;;;
2020/04/24 00:44:26;;;;;;;7.95;5.85;;;;;;;6.46;65.97754;95042.66;;;;
2020/04/24 00:45:26;;;;;;;7.95;5.85;;;;;;;6.46;65.97754;95042.66;;;;
2020/04/24 00:46:27;;;;;;;6.85;6.100001;;;;;;;6.44;66.08008;95039.39;;;;
2020/04/24 00:47:27;;;;;;;6.85;6.100001;;;;;;;6.44;66.08008;95039.39;;;;
2020/04/24 00:48:28;;;;;;;6.85;6.100001;;;;;;;6.44;66.08008;95039.39;;;;
2020/04/24 00:49:28;;;;;;;6.7;6;;;;;;;6.42;66.19531;95044.56;;;;
2020/04/24 00:50:28;;;;;;;6.7;6;;;;;;;6.42;66.19531;95044.56;;;;
2020/04/24 00:51:29;;;;;;;6.749999;6.05;;;;;;;6.4;66.33984;95038.17;;;;
2020/04/24 00:52:29;;;;;;;6.749999;6.05;;;;;;;6.4;66.33984;95038.17;;;;
2020/04/24 00:53:30;;;;;;;6.749999;6.05;;;;;;;6.4;66.33984;95038.17;;;;
2020/04/24 00:54:37;;;;;;;7.699999;6.199999;;;;;;;6.38;66.47559;95039.73;;;;
2020/04/24 00:55:37;;;;;;;7.699999;6.199999;;;;;;;6.38;66.47559;95039.73;;;;
2020/04/24 00:56:38;;;;;;;7.699999;6.199999;;;;;;;6.38;66.47559;95039.73;;;;
2020/04/24 00:57:38;;;;;;;6.299999;5.7;;;;;;;6.35;66.67188;95037.05;;;;
2020/04/24 00:58:39;;;;;;;6.299999;5.7;;;;;;;6.35;66.67188;95037.05;;;;
2020/04/24 00:59:39;;;;;;;6.299999;5.7;;;;;;;6.35;66.67188;95037.05;;;;
2020/04/24 01:00:40;;;;;;;6.299999;5.7;;;;;;;6.35;66.67188;95037.05;;;;
2020/04/24 01:01:40;;;;;;;6.299999;5.7;;;;;;;6.35;66.67188;95037.05;;;;
2020/04/24 01:02:41;;;;;;;6.299999;5.7;;;;;;;6.35;66.67188;95037.05;;;;
2020/04/24 01:03:41;;;;;;;6.299999;5.7;;;;;;;6.35;66.67188;95037.05;;;;
2020/04/24 01:04:42;;;;;;;6.299999;5.7;;;;;;;6.35;66.67188;95037.05;;;;
2020/04/24 01:05:42;;;;;;;6.299999;5.7;;;;;;;6.35;66.67188;95037.05;;;;
2020/04/24 01:06:42;;;;;;;6.299999;5.7;;;;;;;6.35;66.67188;95037.05;;;;
2020/04/24 01:07:43;;;;;;;8.599999;5.8;;;;;;;5.9;65.34082;95024.22;;;;
2020/04/24 01:08:43;;;;;;;8.599999;5.8;;;;;;;5.9;65.34082;95024.22;;;;
2020/04/24 01:09:44;;;;;;;8.599999;5.8;;;;;;;5.9;65.34082;95024.22;;;;
2020/04/24 01:10:44;;;;;;;7.150001;5.649999;;;;;;;5.87;65.70703;95028.25;;;;
2020/04/24 01:11:50;;;;;;;7.150001;5.649999;;;;;;;5.87;65.70703;95028.25;;;;
2020/04/24 01:12:53;;;;;;;6.699999;6;;;;;;;5.9;65.98828;95031.84;;;;
2020/04/24 01:13:53;;;;;;;6.699999;6;;;;;;;5.9;65.98828;95031.84;;;;
2020/04/24 01:14:54;;;;;;;6.699999;6;;;;;;;5.9;65.98828;95031.84;;;;
2020/04/24 01:15:54;;;;;;;7.2;5.9;;;;;;;5.92;66.4248;95025.34;;;;
2020/04/24 01:16:55;;;;;;;7.2;5.9;;;;;;;5.92;66.4248;95025.34;;;;
2020/04/24 01:17:55;;;;;;;6.8;6.1;;;;;;;5.94;66.74609;95028.63;;;;
2020/04/24 01:18:56;;;;;;;6.8;6.1;;;;;;;5.94;66.74609;95028.63;;;;
2020/04/24 01:19:56;;;;;;;6.8;6.1;;;;;;;5.94;66.74609;95028.63;;;;
2020/04/24 01:20:57;;;;;;;6.6;5.9;;;;;;;5.94;67.1084;95022.34;;;;
2020/04/24 01:21:57;;;;;;;6.6;5.9;;;;;;;5.94;67.1084;95022.34;;;;
2020/04/24 01:23:01;;;;;;;6.6;5.9;;;;;;;5.94;67.1084;95022.34;;;;
2020/04/24 01:24:03;;;;;;;8.4;6.649999;;;;;;;5.95;67.41699;95020.92;;;;
2020/04/24 01:25:35;;;;;;;8.4;6.649999;;;;;;;5.95;67.41699;95020.92;;;;
2020/04/24 01:26:36;;;;;;;6.9;6.199999;;;;;;;5.95;67.77832;95015.97;;;;
2020/04/24 01:27:40;;;;;;;6.9;6.199999;;;;;;;5.95;67.77832;95015.97;;;;
2020/04/24 01:28:40;;;;;;;7.1;6.400001;;;;;;;5.95;68.01172;95021.33;;;;
2020/04/24 01:29:41;;;;;;;7.1;6.400001;;;;;;;5.95;68.01172;95021.33;;;;
2020/04/24 01:30:41;;;;;;;7.1;6.400001;;;;;;;5.95;68.01172;95021.33;;;;
2020/04/24 01:31:42;;;;;;;6.950001;6.249999;;;;;;;5.96;68.39453;95015.84;;;;
2020/04/24 01:32:42;;;;;;;6.950001;6.249999;;;;;;;5.96;68.39453;95015.84;;;;
2020/04/24 01:33:43;;;;;;;8.75;6.6;;;;;;;5.97;68.62891;95016.16;;;;
2020/04/24 01:34:43;;;;;;;8.75;6.6;;;;;;;5.97;68.62891;95016.16;;;;
2020/04/24 01:35:44;;;;;;;8.75;6.6;;;;;;;5.97;68.62891;95016.16;;;;
2020/04/24 01:36:44;;;;;;;8.300001;6.45;;;;;;;5.98;68.83203;95016.87;;;;
2020/04/24 01:37:45;;;;;;;8.300001;6.45;;;;;;;5.98;68.83203;95016.87;;;;
2020/04/24 01:38:45;;;;;;;8.300001;6.45;;;;;;;5.98;68.83203;95016.87;;;;
2020/04/24 01:39:45;;;;;;;8.300001;6.45;;;;;;;5.98;68.83203;95016.87;;;;
2020/04/24 01:40:46;;;;;;;8.300001;6.45;;;;;;;5.98;68.83203;95016.87;;;;
2020/04/24 01:41:46;;;;;;;8.300001;6.45;;;;;;;5.98;68.83203;95016.87;;;;
2020/04/24 01:42:47;;;;;;;8.300001;6.45;;;;;;;5.98;68.83203;95016.87;;;;
2020/04/24 01:43:47;;;;;;;8.300001;6.45;;;;;;;5.98;68.83203;95016.87;;;;
2020/04/24 01:44:48;;;;;;;8.300001;6.45;;;;;;;5.98;68.83203;95016.87;;;;
2020/04/24 01:45:48;;;;;;;8.300001;6.45;;;;;;;5.98;68.83203;95016.87;;;;
2020/04/24 01:46:49;;;;;;;8.300001;6.45;;;;;;;5.98;68.83203;95016.87;;;;
2020/04/24 01:47:49;;;;;;;9.7;5.9;;;;;;;5.63;67.3457;95006.2;;;;
2020/04/24 01:48:49;;;;;;;9.7;5.9;;;;;;;5.63;67.3457;95006.2;;;;
2020/04/24 01:49:50;;;;;;;7.6;6.550001;;;;;;;5.62;67.83203;95004.13;;;;
2020/04/24 01:50:50;;;;;;;7.6;6.550001;;;;;;;5.62;67.83203;95004.13;;;;
2020/04/24 01:51:51;;;;;;;7.6;6.550001;;;;;;;5.62;67.83203;95004.13;;;;
2020/04/24 01:52:51;;;;;;;7.6;6.400001;;;;;;;5.67;68.21973;95005.64;;;;
2020/04/24 01:53:52;;;;;;;7.6;6.400001;;;;;;;5.67;68.21973;95005.64;;;;
2020/04/24 01:54:52;;;;;;;7.849999;7.05;;;;;;;5.71;68.78906;95004.19;;;;
2020/04/24 01:55:53;;;;;;;7.849999;7.05;;;;;;;5.71;68.78906;95004.19;;;;
2020/04/24 01:56:53;;;;;;;7.849999;7.05;;;;;;;5.71;68.78906;95004.19;;;;
2020/04/24 01:57:54;;;;;;;7.45;6.75;;;;;;;5.75;69.27344;95004.91;;;;
2020/04/24 01:58:54;;;;;;;7.45;6.75;;;;;;;5.75;69.27344;95004.91;;;;
2020/04/24 01:59:54;;;;;;;7.45;6.75;;;;;;;5.75;69.27344;95004.91;;;;
2020/04/24 02:00:55;;;;;;;7.299999;6.5;;;;;;;5.78;69.7334;95005.8;;;;
2020/04/24 02:01:55;;;;;;;7.299999;6.5;;;;;;;5.78;69.7334;95005.8;;;;
2020/04/24 02:02:56;;;;;;;8.6;6.649999;;;;;;;5.8;70.10742;95005.08;;;;
2020/04/24 02:03:56;;;;;;;8.6;6.649999;;;;;;;5.8;70.10742;95005.08;;;;
2020/04/24 02:04:57;;;;;;;8.6;6.649999;;;;;;;5.8;70.10742;95005.08;;;;
2020/04/24 02:05:57;;;;;;;9.949999;7;;;;;;;5.82;70.55566;94996.31;;;;
2020/04/24 02:06:57;;;;;;;9.949999;7;;;;;;;5.82;70.55566;94996.31;;;;
2020/04/24 02:07:58;;;;;;;9.949999;7;;;;;;;5.82;70.55566;94996.31;;;;
2020/04/24 02:08:58;;;;;;;9.949999;7;;;;;;;5.82;70.55566;94996.31;;;;
2020/04/24 02:09:59;;;;;;;9.949999;7;;;;;;;5.82;70.55566;94996.31;;;;
2020/04/24 02:10:59;;;;;;;9.949999;7;;;;;;;5.82;70.55566;94996.31;;;;
2020/04/24 02:12:00;;;;;;;9.949999;7;;;;;;;5.82;70.55566;94996.31;;;;
2020/04/24 02:13:00;;;;;;;9.949999;7;;;;;;;5.82;70.55566;94996.31;;;;
2020/04/24 02:14:01;;;;;;;9.949999;7;;;;;;;5.82;70.55566;94996.31;;;;
2020/04/24 02:15:02;;;;;;;9.949999;7;;;;;;;5.82;70.55566;94996.31;;;;
2020/04/24 02:16:03;;;;;;;6.849999;6.15;;;;;;;5.53;69.05664;94995.51;;;;
2020/04/24 02:17:04;;;;;;;6.849999;6.15;;;;;;;5.53;69.05664;94995.51;;;;
2020/04/24 02:18:04;;;;;;;6.849999;6.15;;;;;;;5.53;69.05664;94995.51;;;;
2020/04/24 02:19:05;;;;;;;8.949999;6.400001;;;;;;;5.53;69.58594;94991.08;;;;
2020/04/24 02:20:05;;;;;;;8.949999;6.400001;;;;;;;5.53;69.58594;94991.08;;;;
2020/04/24 02:21:08;;;;;;;8.949999;6.400001;;;;;;;5.53;69.58594;94991.08;;;;
2020/04/24 02:22:08;;;;;;;8.45;7.100001;;;;;;;5.59;70.22168;94991.58;;;;
2020/04/24 02:23:09;;;;;;;8.45;7.100001;;;;;;;5.59;70.22168;94991.58;;;;
2020/04/24 02:24:09;;;;;;;9.4;7.25;;;;;;;5.64;70.99219;94994.85;;;;
2020/04/24 02:25:10;;;;;;;9.4;7.25;;;;;;;5.64;70.99219;94994.85;;;;
2020/04/24 02:26:11;;;;;;;9.4;7.25;;;;;;;5.64;70.99219;94994.85;;;;
2020/04/24 02:27:11;;;;;;;9.4;7.25;;;;;;;5.64;70.99219;94994.85;;;;
2020/04/24 02:28:12;;;;;;;9.4;7.25;;;;;;;5.64;70.99219;94994.85;;;;
2020/04/24 02:29:12;;;;;;;9.4;7.25;;;;;;;5.64;70.99219;94994.85;;;;
2020/04/24 02:30:13;;;;;;;9.4;7.25;;;;;;;5.64;70.99219;94994.85;;;;
2020/04/24 02:31:13;;;;;;;9.4;7.25;;;;;;;5.64;70.99219;94994.85;;;;
2020/04/24 02:32:14;;;;;;;9.4;7.25;;;;;;;5.64;70.99219;94994.85;;;;
2020/04/24 02:33:14;;;;;;;9.4;7.25;;;;;;;5.64;70.99219;94994.85;;;;
2020/04/24 02:34:15;;;;;;;9.4;7.25;;;;;;;5.64;70.99219;94994.85;;;;
2020/04/24 02:35:15;;;;;;;9.4;7.25;;;;;;;5.64;70.99219;94994.85;;;;
2020/04/24 02:36:16;;;;;;;9.4;7.25;;;;;;;5.64;70.99219;94994.85;;;;
2020/04/24 02:37:16;;;;;;;9.4;7.25;;;;;;;5.64;70.99219;94994.85;;;;
2020/04/24 02:38:17;;;;;;;9.450002;7.65;;;;;;;5.53;70.00977;94988.81;;;;
2020/04/24 02:39:20;;;;;;;9.450002;7.65;;;;;;;5.53;70.00977;94988.81;;;;
2020/04/24 02:40:34;;;;;;;8.9;7.55;;;;;;;5.62;70.52344;94989.81;;;;
2020/04/24 02:41:35;;;;;;;8.9;7.55;;;;;;;5.62;70.52344;94989.81;;;;
2020/04/24 02:42:39;;;;;;;8.9;7.55;;;;;;;5.62;70.52344;94989.81;;;;
2020/04/24 02:43:49;;;;;;;8.65;7.65;;;;;;;5.66;71.33398;94988.36;;;;
2020/04/24 02:49:20;;;;;;;8.450001;7.349999;;;;;;;5.7;72.70605;94987.83;;;;
2020/04/24 02:50:21;;;;;;;8.450001;7.349999;;;;;;;5.7;72.70605;94987.83;;;;
2020/04/24 02:51:21;;;;;;;8.450001;7.349999;;;;;;;5.7;72.70605;94987.83;;;;
2020/04/24 02:52:22;;;;;;;8.450001;7.349999;;;;;;;5.7;72.70605;94987.83;;;;
2020/04/24 02:53:22;;;;;;;8.450001;7.349999;;;;;;;5.7;72.70605;94987.83;;;;
2020/04/24 02:54:23;;;;;;;8.450001;7.349999;;;;;;;5.7;72.70605;94987.83;;;;
2020/04/24 02:55:23;;;;;;;8.450001;7.349999;;;;;;;5.7;72.70605;94987.83;;;;
2020/04/24 02:56:24;;;;;;;8.450001;7.349999;;;;;;;5.7;72.70605;94987.83;;;;
2020/04/24 02:57:24;;;;;;;8.450001;7.349999;;;;;;;5.7;72.70605;94987.83;;;;
2020/04/24 02:58:25;;;;;;;8.450001;7.349999;;;;;;;5.7;72.70605;94987.83;;;;
2020/04/24 02:59:25;;;;;;;8.200001;6.849999;;;;;;;5.4;71.24805;94991.13;;;;
2020/04/24 03:00:26;;;;;;;8.200001;6.849999;;;;;;;5.4;71.24805;94991.13;;;;
2020/04/24 03:01:26;;;;;;;8.799999;7.45;;;;;;;5.39;71.86035;94985.89;;;;
2020/04/24 03:02:26;;;;;;;8.799999;7.45;;;;;;;5.39;71.86035;94985.89;;;;
2020/04/24 03:03:27;;;;;;;8.799999;7.45;;;;;;;5.39;71.86035;94985.89;;;;
2020/04/24 03:04:27;;;;;;;9;8.1;;;;;;;5.44;72.51367;94981.64;;;;
2020/04/24 03:05:28;;;;;;;9;8.1;;;;;;;5.44;72.51367;94981.64;;;;
2020/04/24 03:06:28;;;;;;;8.4;7.5;;;;;;;5.48;73.26172;94976.59;;;;
2020/04/24 03:07:29;;;;;;;8.4;7.5;;;;;;;5.48;73.26172;94976.59;;;;
2020/04/24 03:08:29;;;;;;;8.4;7.5;;;;;;;5.48;73.26172;94976.59;;;;
2020/04/24 03:09:30;;;;;;;9.6;8.15;;;;;;;5.51;73.82715;94977.91;;;;
2020/04/24 03:10:30;;;;;;;9.6;8.15;;;;;;;5.51;73.82715;94977.91;;;;
2020/04/24 03:11:31;;;;;;;9.6;8.15;;;;;;;5.51;73.82715;94977.91;;;;
2020/04/24 03:12:31;;;;;;;9.4;8.5;;;;;;;5.54;74.43457;94972.25;;;;
2020/04/24 03:13:33;;;;;;;9.4;8.5;;;;;;;5.54;74.43457;94972.25;;;;
2020/04/24 03:14:33;;;;;;;9.4;8.5;;;;;;;5.54;74.43457;94972.25;;;;
2020/04/24 03:15:33;;;;;;;9.4;8.5;;;;;;;5.54;74.43457;94972.25;;;;
2020/04/24 03:16:34;;;;;;;9.4;8.5;;;;;;;5.54;74.43457;94972.25;;;;
2020/04/24 03:17:34;;;;;;;9.4;8.5;;;;;;;5.54;74.43457;94972.25;;;;
2020/04/24 03:18:35;;;;;;;9.4;8.5;;;;;;;5.54;74.43457;94972.25;;;;
2020/04/24 03:19:35;;;;;;;9.4;8.5;;;;;;;5.54;74.43457;94972.25;;;;
2020/04/24 03:20:36;;;;;;;9.4;8.5;;;;;;;5.54;74.43457;94972.25;;;;
2020/04/24 03:21:36;;;;;;;9.4;8.5;;;;;;;5.54;74.43457;94972.25;;;;
2020/04/24 03:22:37;;;;;;;9.5;7.95;;;;;;;5.22;72.84668;94971.31;;;;
2020/04/24 03:23:37;;;;;;;9.5;7.95;;;;;;;5.22;72.84668;94971.31;;;;
2020/04/24 03:24:38;;;;;;;9.5;7.95;;;;;;;5.22;72.84668;94971.31;;;;
2020/04/24 03:25:38;;;;;;;10.55;7.749999;;;;;;;5.21;73.4375;94963.92;;;;
2020/04/24 03:26:39;;;;;;;10.55;7.749999;;;;;;;5.21;73.4375;94963.92;;;;
2020/04/24 03:27:39;;;;;;;10.55;7.749999;;;;;;;5.21;73.4375;94963.92;;;;
2020/04/24 03:28:40;;;;;;;10.55;7.749999;;;;;;;5.21;73.4375;94963.92;;;;
2020/04/24 03:29:40;;;;;;;10.55;7.749999;;;;;;;5.21;73.4375;94963.92;;;;
2020/04/24 03:30:40;;;;;;;10.55;7.749999;;;;;;;5.21;73.4375;94963.92;;;;
2020/04/24 03:31:41;;;;;;;10.55;7.749999;;;;;;;5.21;73.4375;94963.92;;;;
2020/04/24 03:32:41;;;;;;;10.55;7.749999;;;;;;;5.21;73.4375;94963.92;;;;
2020/04/24 03:33:42;;;;;;;10.55;7.749999;;;;;;;5.21;73.4375;94963.92;;;;
2020/04/24 03:34:42;;;;;;;10.55;7.749999;;;;;;;5.21;73.4375;94963.92;;;;
2020/04/24 03:35:43;;;;;;;12.6;7;;;;;;;4.97;72.2666;94957.39;;;;
2020/04/24 03:36:43;;;;;;;12.6;7;;;;;;;4.97;72.2666;94957.39;;;;
2020/04/24 03:37:44;;;;;;;12.6;7;;;;;;;4.97;72.2666;94957.39;;;;
2020/04/24 03:38:44;;;;;;;10;8.599999;;;;;;;4.98;72.91309;94947.94;;;;
2020/04/24 03:39:45;;;;;;;10;8.599999;;;;;;;4.98;72.91309;94947.94;;;;
2020/04/24 03:40:45;;;;;;;10;8.599999;;;;;;;4.98;72.91309;94947.94;;;;
2020/04/24 03:41:45;;;;;;;10;8.599999;;;;;;;4.98;72.91309;94947.94;;;;
2020/04/24 03:42:46;;;;;;;10;8.599999;;;;;;;4.98;72.91309;94947.94;;;;
2020/04/24 03:43:47;;;;;;;10;8.599999;;;;;;;4.98;72.91309;94947.94;;;;
2020/04/24 03:44:47;;;;;;;10;8.599999;;;;;;;4.98;72.91309;94947.94;;;;
2020/04/24 03:45:48;;;;;;;10;8.599999;;;;;;;4.98;72.91309;94947.94;;;;
2020/04/24 03:46:49;;;;;;;10;8.599999;;;;;;;4.98;72.91309;94947.94;;;;
2020/04/24 03:47:49;;;;;;;10;8.599999;;;;;;;4.98;72.91309;94947.94;;;;
2020/04/24 03:48:50;;;;;;;14.15;7.799999;;;;;;;4.84;72.01172;94945.92;;;;
2020/04/24 03:49:51;;;;;;;14.15;7.799999;;;;;;;4.84;72.01172;94945.92;;;;
2020/04/24 03:50:51;;;;;;;14.15;7.799999;;;;;;;4.84;72.01172;94945.92;;;;
2020/04/24 03:51:51;;;;;;;9.799999;8.050001;;;;;;;4.86;72.70215;94947.88;;;;
2020/04/24 03:52:52;;;;;;;9.799999;8.050001;;;;;;;4.86;72.70215;94947.88;;;;
2020/04/24 03:53:53;;;;;;;9.799999;8.050001;;;;;;;4.86;72.70215;94947.88;;;;
2020/04/24 03:54:53;;;;;;;9.799999;8.050001;;;;;;;4.86;72.70215;94947.88;;;;
2020/04/24 03:55:54;;;;;;;9.799999;8.050001;;;;;;;4.86;72.70215;94947.88;;;;
2020/04/24 03:56:54;;;;;;;9.799999;8.050001;;;;;;;4.86;72.70215;94947.88;;;;
2020/04/24 03:57:55;;;;;;;9.799999;8.050001;;;;;;;4.86;72.70215;94947.88;;;;
2020/04/24 03:58:55;;;;;;;9.799999;8.050001;;;;;;;4.86;72.70215;94947.88;;;;
2020/04/24 03:59:56;;;;;;;9.799999;8.050001;;;;;;;4.86;72.70215;94947.88;;;;
2020/04/24 04:00:56;;;;;;;9.799999;8.050001;;;;;;;4.86;72.70215;94947.88;;;;
2020/04/24 04:01:57;;;;;;;9.799999;8.050001;;;;;;;4.86;72.70215;94947.88;;;;
2020/04/24 04:02:57;;;;;;;11.15;8.399999;;;;;;;4.75;71.78711;94947.45;;;;
2020/04/24 04:03:58;;;;;;;11.15;8.399999;;;;;;;4.75;71.78711;94947.45;;;;
2020/04/24 04:04:58;;;;;;;13;9.75;;;;;;;4.78;72.50781;94944.89;;;;
2020/04/24 04:05:58;;;;;;;13;9.75;;;;;;;4.78;72.50781;94944.89;;;;
2020/04/24 04:06:59;;;;;;;13;9.75;;;;;;;4.78;72.50781;94944.89;;;;
2020/04/24 04:07:59;;;;;;;13;9.75;;;;;;;4.78;72.50781;94944.89;;;;
2020/04/24 04:09:00;;;;;;;13;9.75;;;;;;;4.78;72.50781;94944.89;;;;
2020/04/24 04:10:00;;;;;;;13;9.75;;;;;;;4.78;72.50781;94944.89;;;;
2020/04/24 04:11:01;;;;;;;13;9.75;;;;;;;4.78;72.50781;94944.89;;;;
2020/04/24 04:12:01;;;;;;;13;9.75;;;;;;;4.78;72.50781;94944.89;;;;
2020/04/24 04:13:02;;;;;;;13;9.75;;;;;;;4.78;72.50781;94944.89;;;;
2020/04/24 04:14:02;;;;;;;13;9.75;;;;;;;4.78;72.50781;94944.89;;;;
2020/04/24 04:15:03;;;;;;;13;9.75;;;;;;;4.78;72.50781;94944.89;;;;
2020/04/24 04:16:03;;;;;;;10.75;8.450001;;;;;;;4.74;71.83789;94941.82;;;;
2020/04/24 04:17:04;;;;;;;10.75;8.450001;;;;;;;4.74;71.83789;94941.82;;;;
2020/04/24 04:18:05;;;;;;;12.15;8.849999;;;;;;;4.79;72.58691;94947.36;;;;
2020/04/24 04:19:06;;;;;;;12.15;8.849999;;;;;;;4.79;72.58691;94947.36;;;;
2020/04/24 04:20:07;;;;;;;12.15;8.849999;;;;;;;4.79;72.58691;94947.36;;;;
2020/04/24 04:21:08;;;;;;;12.15;8.849999;;;;;;;4.79;72.58691;94947.36;;;;
2020/04/24 04:22:08;;;;;;;12.15;8.849999;;;;;;;4.79;72.58691;94947.36;;;;
2020/04/24 04:23:09;;;;;;;12.15;8.849999;;;;;;;4.79;72.58691;94947.36;;;;
2020/04/24 04:24:09;;;;;;;12.15;8.849999;;;;;;;4.79;72.58691;94947.36;;;;
2020/04/24 04:25:09;;;;;;;12.15;8.849999;;;;;;;4.79;72.58691;94947.36;;;;
2020/04/24 04:26:10;;;;;;;12.15;8.849999;;;;;;;4.79;72.58691;94947.36;;;;
2020/04/24 04:27:10;;;;;;;12.15;8.849999;;;;;;;4.79;72.58691;94947.36;;;;
2020/04/24 04:28:11;;;;;;;12.15;8.849999;;;;;;;4.79;72.58691;94947.36;;;;
2020/04/24 04:29:11;;;;;;;14.55;8.250001;;;;;;;4.84;71.76953;94940.56;;;;
2020/04/24 04:30:12;;;;;;;14.55;8.250001;;;;;;;4.84;71.76953;94940.56;;;;
2020/04/24 04:31:12;;;;;;;10.05;8.899999;;;;;;;4.91;72.49902;94948.05;;;;
2020/04/24 04:32:13;;;;;;;10.05;8.899999;;;;;;;4.91;72.49902;94948.05;;;;
2020/04/24 04:33:13;;;;;;;10.05;8.899999;;;;;;;4.91;72.49902;94948.05;;;;
2020/04/24 04:34:14;;;;;;;10.05;8.899999;;;;;;;4.91;72.49902;94948.05;;;;
2020/04/24 04:35:14;;;;;;;10.05;8.899999;;;;;;;4.91;72.49902;94948.05;;;;
2020/04/24 04:36:15;;;;;;;10.05;8.899999;;;;;;;4.91;72.49902;94948.05;;;;
2020/04/24 04:37:15;;;;;;;10.05;8.899999;;;;;;;4.91;72.49902;94948.05;;;;
2020/04/24 04:38:15;;;;;;;10.05;8.899999;;;;;;;4.91;72.49902;94948.05;;;;
2020/04/24 04:39:16;;;;;;;10.05;8.899999;;;;;;;4.91;72.49902;94948.05;;;;
2020/04/24 04:40:16;;;;;;;10.05;8.899999;;;;;;;4.91;72.49902;94948.05;;;;
2020/04/24 04:41:17;;;;;;;10.05;8.899999;;;;;;;4.91;72.49902;94948.05;;;;
2020/04/24 04:42:17;;;;;;;11.15;8.399999;;;;;;;5.09;71.74609;94942.86;;;;
2020/04/24 04:43:18;;;;;;;11.15;8.399999;;;;;;;5.09;71.74609;94942.86;;;;
2020/04/24 04:44:18;;;;;;;10.25;9.05;;;;;;;5.19;72.46191;94940.97;;;;
2020/04/24 04:45:19;;;;;;;10.25;9.05;;;;;;;5.19;72.46191;94940.97;;;;
2020/04/24 04:46:19;;;;;;;10.25;9.05;;;;;;;5.19;72.46191;94940.97;;;;
2020/04/24 04:47:20;;;;;;;10.25;9.05;;;;;;;5.19;72.46191;94940.97;;;;
2020/04/24 04:48:20;;;;;;;10.25;9.05;;;;;;;5.19;72.46191;94940.97;;;;
2020/04/24 04:49:21;;;;;;;10.25;9.05;;;;;;;5.19;72.46191;94940.97;;;;
2020/04/24 04:50:21;;;;;;;10.25;9.05;;;;;;;5.19;72.46191;94940.97;;;;
2020/04/24 04:51:22;;;;;;;10.25;9.05;;;;;;;5.19;72.46191;94940.97;;;;
2020/04/24 04:52:22;;;;;;;10.25;9.05;;;;;;;5.19;72.46191;94940.97;;;;
2020/04/24 04:53:22;;;;;;;10.25;9.05;;;;;;;5.19;72.46191;94940.97;;;;
2020/04/24 04:54:23;;;;;;;10.25;9.05;;;;;;;5.19;72.46191;94940.97;;;;
2020/04/24 04:55:23;;;;;;;10.2;7.75;;;;;;;5.52;71.62793;94952.89;;;;
2020/04/24 04:56:24;;;;;;;10.2;7.75;;;;;;;5.52;71.62793;94952.89;;;;
2020/04/24 04:57:25;;;;;;;10.2;7.75;;;;;;;5.52;71.62793;94952.89;;;;
2020/04/24 04:59:03;;;;;;;9.9;8.9;;;;;;;5.67;72.38379;94948.89;;;;
2020/04/24 05:01:00;;;;;;;9.9;8.9;;;;;;;5.67;72.38379;94948.89;;;;
2020/04/24 05:02:09;;;;;;;9.9;8.9;;;;;;;5.67;72.38379;94948.89;;;;
2020/04/24 05:03:13;;;;;;;9.9;8.9;;;;;;;5.67;72.38379;94948.89;;;;
2020/04/24 05:04:18;;;;;;;9.9;8.9;;;;;;;5.67;72.38379;94948.89;;;;
2020/04/24 05:05:21;;;;;;;9.9;8.9;;;;;;;5.67;72.38379;94948.89;;;;
2020/04/24 05:06:21;;;;;;;9.9;8.9;;;;;;;5.67;72.38379;94948.89;;;;
2020/04/24 05:07:22;;;;;;;9.9;8.9;;;;;;;5.67;72.38379;94948.89;;;;
2020/04/24 05:08:22;;;;;;;12.35;8.000002;;;;;;;6.14;71.50879;94961;;;;
2020/04/24 05:09:23;;;;;;;12.35;8.000002;;;;;;;6.14;71.50879;94961;;;;
2020/04/24 05:10:23;;;;;;;12.35;8.000002;;;;;;;6.14;71.50879;94961;;;;
2020/04/24 05:11:24;;;;;;;8.9;8;;;;;;;6.34;72.08398;94955.41;;;;
2020/04/24 05:12:24;;;;;;;8.9;8;;;;;;;6.34;72.08398;94955.41;;;;
2020/04/24 05:13:25;;;;;;;8.9;8;;;;;;;6.34;72.08398;94955.41;;;;
2020/04/24 05:14:25;;;;;;;8.9;8;;;;;;;6.34;72.08398;94955.41;;;;
2020/04/24 05:15:26;;;;;;;8.9;8;;;;;;;6.34;72.08398;94955.41;;;;
2020/04/24 05:16:26;;;;;;;8.9;8;;;;;;;6.34;72.08398;94955.41;;;;
2020/04/24 05:17:27;;;;;;;8.9;8;;;;;;;6.34;72.08398;94955.41;;;;
2020/04/24 05:18:27;;;;;;;8.9;8;;;;;;;6.34;72.08398;94955.41;;;;
2020/04/24 05:19:28;;;;;;;8.9;8;;;;;;;6.34;72.08398;94955.41;;;;
2020/04/24 05:20:28;;;;;;;8.9;8;;;;;;;6.34;72.08398;94955.41;;;;
2020/04/24 05:21:29;;;;;;;9.25;7.799999;;;;;;;6.92;70.82031;94955;;;;
2020/04/24 05:22:29;;;;;;;9.25;7.799999;;;;;;;6.92;70.82031;94955;;;;
2020/04/24 05:23:30;;;;;;;9.25;7.799999;;;;;;;6.92;70.82031;94955;;;;
2020/04/24 05:24:30;;;;;;;8.950001;7.299999;;;;;;;7.14;71.54688;94952.72;;;;
2020/04/24 05:25:31;;;;;;;8.950001;7.299999;;;;;;;7.14;71.54688;94952.72;;;;
2020/04/24 05:26:31;;;;;;;8.950001;7.299999;;;;;;;7.14;71.54688;94952.72;;;;
2020/04/24 05:27:32;;;;;;;8.950001;7.299999;;;;;;;7.14;71.54688;94952.72;;;;
2020/04/24 05:28:32;;;;;;;8.950001;7.299999;;;;;;;7.14;71.54688;94952.72;;;;
2020/04/24 05:29:33;;;;;;;8.950001;7.299999;;;;;;;7.14;71.54688;94952.72;;;;
2020/04/24 05:30:33;;;;;;;8.950001;7.299999;;;;;;;7.14;71.54688;94952.72;;;;
2020/04/24 05:31:34;;;;;;;8.950001;7.299999;;;;;;;7.14;71.54688;94952.72;;;;
2020/04/24 05:32:34;;;;;;;8.950001;7.299999;;;;;;;7.14;71.54688;94952.72;;;;
2020/04/24 05:33:35;;;;;;;8.950001;7.299999;;;;;;;7.14;71.54688;94952.72;;;;
2020/04/24 05:34:35;;;;;;;8.749998;6.75;;;;;;;7.84;70.02246;94948.99;;;;
2020/04/24 05:35:36;;;;;;;8.749998;6.75;;;;;;;7.84;70.02246;94948.99;;;;
2020/04/24 05:36:36;;;;;;;8.749998;6.75;;;;;;;7.84;70.02246;94948.99;;;;
2020/04/24 05:37:37;;;;;;;8.999998;6.950001;;;;;;;8.08;70.63574;94949.89;;;;
2020/04/24 05:38:37;;;;;;;8.999998;6.950001;;;;;;;8.08;70.63574;94949.89;;;;
2020/04/24 05:39:37;;;;;;;8.999998;6.950001;;;;;;;8.08;70.63574;94949.89;;;;
2020/04/24 05:40:38;;;;;;;7.9;6.65;;;;;;;8.35;70.8418;94944.33;;;;
2020/04/24 05:41:38;;;;;;;7.9;6.65;;;;;;;8.35;70.8418;94944.33;;;;
2020/04/24 05:42:39;;;;;;;7.349999;6.650001;;;;;;;8.62;70.80957;94946.48;;;;
2020/04/24 05:43:39;;;;;;;7.349999;6.650001;;;;;;;8.62;70.80957;94946.48;;;;
2020/04/24 05:44:40;;;;;;;7.349999;6.650001;;;;;;;8.62;70.80957;94946.48;;;;
2020/04/24 05:45:40;;;;;;;7.349999;6.650001;;;;;;;8.62;70.80957;94946.48;;;;
2020/04/24 05:46:41;;;;;;;7.349999;6.650001;;;;;;;8.62;70.80957;94946.48;;;;
2020/04/24 05:47:41;;;;;;;7.349999;6.650001;;;;;;;8.62;70.80957;94946.48;;;;
2020/04/24 05:48:42;;;;;;;7.349999;6.650001;;;;;;;8.62;70.80957;94946.48;;;;
2020/04/24 05:49:42;;;;;;;7.349999;6.650001;;;;;;;8.62;70.80957;94946.48;;;;
2020/04/24 05:50:43;;;;;;;7.349999;6.650001;;;;;;;8.62;70.80957;94946.48;;;;
2020/04/24 05:51:43;;;;;;;7.349999;6.650001;;;;;;;8.62;70.80957;94946.48;;;;
2020/04/24 05:52:43;;;;;;;7.349999;6.650001;;;;;;;8.62;70.80957;94946.48;;;;
2020/04/24 05:53:44;;;;;;;7.199999;5.95;;;;;;;9.26;68.82031;94951.47;;;;
2020/04/24 05:54:44;;;;;;;7.199999;5.95;;;;;;;9.26;68.82031;94951.47;;;;